Time;durP1;ratioP1;P1;durP2;ratioP2;P2;SDS_P1;SDS_P2;PMS_P1;PMS_P2;Temp;Humidity;BMP_temperature;BMP_pressure;BME280_temperature;BME280_humidity;BME280_pressure;Samples;Min_cycle;Max_cycle;Signal;HPM_P1;HPM_P2
2022/05/17 00:00:08;;;;;;;5.68;5.15;;;13.70;99.90;;;;;;5088438;28;20058;-79
2022/05/17 00:02:39;;;;;;;5.63;4.68;;;13.70;99.90;;;;;;5096992;28;20040;-78
2022/05/17 00:05:05;;;;;;;8.27;5.97;;;13.70;99.90;;;;;;5094256;28;20033;-76
2022/05/17 00:07:32;;;;;;;6.40;5.80;;;13.70;99.90;;;;;;5093879;28;20492;-78
2022/05/17 00:09:58;;;;;;;5.88;5.38;;;13.60;99.90;;;;;;5089788;28;20044;-77
2022/05/17 00:12:24;;;;;;;6.20;5.60;;;13.60;99.90;;;;;;5090806;28;20033;-76
2022/05/17 00:14:50;;;;;;;6.38;5.38;;;13.60;99.90;;;;;;5095318;28;20472;-77
2022/05/17 00:17:16;;;;;;;6.30;5.22;;;13.50;99.90;;;;;;5093305;28;20035;-78
2022/05/17 00:19:43;;;;;;;5.93;5.38;;;13.40;99.90;;;;;;5091822;28;20040;-77
2022/05/17 00:22:09;;;;;;;6.53;5.88;;;13.30;99.90;;;;;;5091386;28;20032;-78
2022/05/17 00:24:35;;;;;;;10.85;6.30;;;13.20;99.90;;;;;;5089292;28;20055;-78
2022/05/17 00:27:03;;;;;;;6.80;6.18;;;13.20;99.90;;;;;;5094753;28;20035;-77
2022/05/17 00:29:30;;;;;;;5.68;5.18;;;13.10;99.90;;;;;;5091827;28;20036;-78
2022/05/17 00:31:56;;;;;;;6.20;5.60;;;13.10;99.90;;;;;;5094667;28;20040;-77
2022/05/17 00:34:24;;;;;;;6.47;5.85;;;13.10;99.90;;;;;;5092496;28;20039;-77
2022/05/17 00:36:50;;;;;;;6.32;5.47;;;13.20;99.90;;;;;;5094176;28;20032;-78
2022/05/17 00:39:17;;;;;;;6.00;5.38;;;13.20;99.90;;;;;;5093135;28;20047;-78
2022/05/17 00:41:43;;;;;;;6.20;5.68;;;13.30;99.90;;;;;;5087391;28;20472;-78
2022/05/17 00:46:57;;;;;;;5.50;5.00;;;13.30;99.90;;;;;;5093667;28;20035;-77
2022/05/17 00:49:39;;;;;;;5.65;5.05;;;13.30;99.90;;;;;;5084801;28;20036;-78
2022/05/17 00:52:18;;;;;;;5.70;5.13;;;13.30;99.90;;;;;;5090426;28;20361;-79
2022/05/17 00:54:45;;;;;;;6.68;5.18;;;13.30;99.90;;;;;;5095047;28;20498;-75
2022/05/17 00:57:20;;;;;;;6.18;5.57;;;13.30;99.90;;;;;;5088213;28;20039;-76
2022/05/17 00:59:48;;;;;;;6.18;5.57;;;13.30;99.90;;;;;;5090483;28;20036;-77
2022/05/17 01:02:15;;;;;;;7.30;5.53;;;13.30;99.90;;;;;;5093949;28;20039;-76
2022/05/17 01:04:41;;;;;;;6.93;6.32;;;13.20;99.90;;;;;;5091849;28;20033;-76
2022/05/17 01:07:16;;;;;;;5.18;4.78;;;13.20;99.90;;;;;;5093418;28;20453;-78
2022/05/17 01:09:42;;;;;;;7.70;6.22;;;13.20;99.90;;;;;;5089272;28;20024;-77
2022/05/17 01:12:09;;;;;;;7.03;5.85;;;13.20;99.90;;;;;;5093545;28;20035;-78
2022/05/17 01:17:22;;;;;;;6.82;5.95;;;13.10;99.90;;;;;;5091727;28;20035;-78
2022/05/17 01:19:49;;;;;;;5.45;4.95;;;13.00;99.90;;;;;;5077086;28;20048;-78
2022/05/17 01:22:15;;;;;;;6.38;5.55;;;12.90;99.90;;;;;;5069821;28;20043;-78
2022/05/17 01:24:43;;;;;;;6.38;5.78;;;12.80;99.90;;;;;;5068882;28;20040;-76
2022/05/17 01:27:21;;;;;;;5.65;5.20;;;12.70;99.90;;;;;;5067959;28;20033;-77
2022/05/17 01:29:49;;;;;;;6.13;5.38;;;12.60;99.90;;;;;;5073930;28;20343;-77
2022/05/17 01:32:16;;;;;;;7.82;5.45;;;12.50;99.90;;;;;;5069283;28;20041;-78
2022/05/17 01:34:43;;;;;;;6.55;5.95;;;12.40;99.90;;;;;;5073184;28;20051;-78
2022/05/17 01:37:11;;;;;;;4.68;4.25;;;12.40;99.90;;;;;;5072695;28;20031;-78
2022/05/17 01:39:38;;;;;;;9.80;6.97;;;12.30;99.90;;;;;;5069233;28;20029;-78
2022/05/17 01:42:06;;;;;;;5.97;5.38;;;12.30;99.90;;;;;;5073207;28;20047;-78
2022/05/17 01:44:32;;;;;;;7.70;6.15;;;12.30;99.90;;;;;;5072393;28;20028;-77
2022/05/17 01:46:58;;;;;;;5.90;5.30;;;12.30;99.90;;;;;;5069029;28;20040;-78
2022/05/17 01:49:24;;;;;;;6.82;5.97;;;12.20;99.90;;;;;;5071113;28;20032;-77
2022/05/17 01:51:51;;;;;;;8.02;7.20;;;12.20;99.90;;;;;;5070305;28;20028;-77
2022/05/17 01:54:17;;;;;;;7.28;6.57;;;12.10;99.90;;;;;;5047665;28;20040;-77
2022/05/17 01:56:43;;;;;;;5.90;5.43;;;12.10;99.90;;;;;;5071716;28;20029;-77
2022/05/17 01:59:09;;;;;;;6.25;5.75;;;12.10;99.90;;;;;;5071838;28;20075;-78
2022/05/17 02:01:36;;;;;;;6.18;5.57;;;12.30;99.90;;;;;;5067803;28;20044;-78
2022/05/17 02:04:02;;;;;;;5.47;5.03;;;12.20;99.90;;;;;;5067620;28;20035;-77
2022/05/17 02:06:28;;;;;;;5.22;4.78;;;12.10;99.90;;;;;;5071844;28;20033;-77
2022/05/17 02:08:55;;;;;;;7.22;5.32;;;12.00;99.90;;;;;;5072181;28;20036;-78
2022/05/17 02:11:21;;;;;;;5.57;5.10;;;12.00;99.90;;;;;;5072733;28;20037;-77
2022/05/17 02:13:47;;;;;;;6.78;6.18;;;12.10;99.90;;;;;;5068801;28;20033;-77
2022/05/17 02:16:14;;;;;;;6.03;5.50;;;12.10;99.90;;;;;;5073832;28;20036;-78
2022/05/17 02:18:40;;;;;;;6.28;5.68;;;12.20;99.90;;;;;;5074261;28;20056;-78
2022/05/17 02:21:08;;;;;;;14.77;6.40;;;12.20;99.90;;;;;;5071920;28;20024;-78
2022/05/17 02:23:34;;;;;;;7.07;5.80;;;12.10;99.90;;;;;;5072841;28;20040;-77
2022/05/17 02:26:00;;;;;;;8.68;5.13;;;12.10;99.90;;;;;;5072032;28;20025;-77
2022/05/17 02:28:26;;;;;;;8.38;6.68;;;12.00;99.90;;;;;;5070906;28;20167;-77
2022/05/17 02:30:53;;;;;;;7.50;6.75;;;12.10;99.90;;;;;;5071018;28;20025;-77
2022/05/17 02:33:19;;;;;;;6.70;6.03;;;12.10;99.90;;;;;;5067072;28;20048;-76
2022/05/17 02:35:45;;;;;;;7.00;4.97;;;12.10;99.90;;;;;;5069468;28;20461;-77
2022/05/17 02:38:11;;;;;;;7.15;5.22;;;12.00;99.90;;;;;;5050367;28;20392;-77
2022/05/17 02:40:37;;;;;;;8.32;6.45;;;11.90;99.90;;;;;;5068382;28;20032;-77
2022/05/17 02:43:04;;;;;;;7.28;6.43;;;11.80;99.90;;;;;;5068685;28;20051;-77
2022/05/17 02:45:31;;;;;;;14.65;6.63;;;11.80;99.90;;;;;;5070099;28;20508;-77
2022/05/17 02:47:58;;;;;;;6.90;6.22;;;11.80;99.90;;;;;;5045769;28;20045;-77
2022/05/17 02:50:24;;;;;;;6.32;5.25;;;12.00;99.90;;;;;;5045774;28;20041;-77
2022/05/17 02:52:51;;;;;;;7.20;6.50;;;11.90;99.90;;;;;;5071076;28;20385;-76
2022/05/17 02:55:18;;;;;;;7.03;6.25;;;12.00;99.90;;;;;;5065767;28;20036;-78
2022/05/17 02:57:44;;;;;;;6.72;5.93;;;11.90;99.90;;;;;;5066054;28;20477;-77
2022/05/17 03:00:13;;;;;;;8.88;5.55;;;11.70;99.90;;;;;;5050681;28;20041;-78
2022/05/17 03:02:40;;;;;;;5.28;4.68;;;11.60;99.90;;;;;;5070825;28;20111;-77
2022/05/17 03:05:07;;;;;;;6.93;6.22;;;11.60;99.90;;;;;;5048784;28;20036;-77
2022/05/17 03:07:33;;;;;;;10.90;5.95;;;11.70;99.90;;;;;;5064241;28;20449;-77
2022/05/17 03:09:59;;;;;;;6.95;6.35;;;11.70;99.90;;;;;;5064208;28;20040;-78
2022/05/17 03:12:25;;;;;;;5.90;5.30;;;11.70;99.90;;;;;;5052265;28;20040;-78
2022/05/17 03:14:51;;;;;;;5.60;5.10;;;11.70;99.90;;;;;;5075679;28;20041;-75
2022/05/17 03:17:18;;;;;;;7.97;6.93;;;11.60;99.90;;;;;;5073700;28;20029;-77
2022/05/17 03:19:44;;;;;;;7.47;6.25;;;11.50;99.90;;;;;;5069291;28;20053;-76
2022/05/17 03:22:11;;;;;;;6.47;5.88;;;11.60;99.90;;;;;;5068773;28;20035;-78
2022/05/17 03:24:38;;;;;;;6.07;5.43;;;11.60;99.90;;;;;;5052678;28;20041;-77
2022/05/17 03:27:05;;;;;;;6.63;5.68;;;11.60;99.90;;;;;;5054135;28;20039;-77
2022/05/17 03:29:32;;;;;;;5.30;4.82;;;11.70;99.90;;;;;;5073229;28;20143;-77
2022/05/17 03:31:59;;;;;;;5.93;5.43;;;11.70;99.90;;;;;;5069669;28;20048;-77
2022/05/17 03:34:25;;;;;;;9.20;5.28;;;11.60;99.90;;;;;;5063136;28;20028;-77
2022/05/17 03:36:51;;;;;;;5.45;5.05;;;11.50;99.90;;;;;;5034046;28;20119;-77
2022/05/17 03:39:18;;;;;;;7.07;5.35;;;11.50;99.90;;;;;;5044960;28;20033;-78
2022/05/17 03:41:44;;;;;;;9.05;5.60;;;11.40;99.90;;;;;;5067731;28;20068;-77
2022/05/17 03:44:10;;;;;;;6.32;5.72;;;11.40;99.90;;;;;;5065728;28;20036;-77
2022/05/17 03:46:39;;;;;;;5.90;5.40;;;11.40;99.90;;;;;;5066262;28;20103;-78
2022/05/17 03:49:05;;;;;;;6.63;5.97;;;11.40;99.90;;;;;;5064207;28;20040;-77
2022/05/17 03:51:32;;;;;;;6.05;5.47;;;11.40;99.90;;;;;;5064316;28;20029;-77
2022/05/17 03:53:58;;;;;;;6.55;5.68;;;11.50;99.90;;;;;;5051751;28;20501;-77
2022/05/17 03:56:24;;;;;;;7.00;6.35;;;11.60;99.90;;;;;;5076130;28;20380;-78
2022/05/17 03:58:50;;;;;;;6.65;5.85;;;11.60;99.90;;;;;;5055515;28;20028;-77
2022/05/17 04:01:16;;;;;;;6.65;6.05;;;11.60;99.90;;;;;;5068994;28;20039;-77
2022/05/17 04:03:43;;;;;;;7.07;5.95;;;11.70;99.90;;;;;;5069022;28;20103;-79
2022/05/17 04:06:10;;;;;;;6.45;5.80;;;11.80;99.90;;;;;;5070964;28;20036;-78
2022/05/17 04:08:36;;;;;;;6.63;5.93;;;11.70;99.90;;;;;;5059366;28;20032;-79
2022/05/17 04:11:06;;;;;;;6.50;5.93;;;11.70;99.90;;;;;;5076983;28;20032;-77
2022/05/17 04:13:33;;;;;;;6.10;5.60;;;11.70;99.90;;;;;;5071766;28;20040;-78
2022/05/17 04:16:01;;;;;;;5.57;5.07;;;11.70;99.90;;;;;;5062326;28;20039;-78
2022/05/17 04:18:28;;;;;;;6.50;5.72;;;11.70;99.90;;;;;;5077063;28;20029;-79
2022/05/17 04:20:59;;;;;;;6.20;5.65;;;11.80;99.90;;;;;;5074488;28;20040;-78
2022/05/17 04:23:25;;;;;;;7.20;5.95;;;11.80;99.90;;;;;;5070766;28;20041;-79
2022/05/17 04:25:51;;;;;;;5.43;4.85;;;11.80;99.90;;;;;;5073231;28;20047;-76
2022/05/17 04:28:18;;;;;;;9.82;5.78;;;11.90;99.90;;;;;;5059725;28;20037;-77
2022/05/17 04:30:44;;;;;;;10.35;4.63;;;12.00;99.90;;;;;;5070427;28;20021;-77
2022/05/17 04:33:11;;;;;;;8.57;5.35;;;12.40;99.90;;;;;;5073595;28;20036;-78
2022/05/17 04:35:40;;;;;;;5.40;4.90;;;13.30;99.90;;;;;;5073634;28;20048;-76
2022/05/17 04:38:07;;;;;;;7.38;4.30;;;13.90;99.90;;;;;;5069136;28;20028;-76
2022/05/17 04:40:34;;;;;;;4.53;4.10;;;14.60;99.90;;;;;;5069118;28;20036;-77
2022/05/17 04:43:00;;;;;;;8.35;4.13;;;15.10;99.90;;;;;;5053556;28;20143;-77
2022/05/17 04:45:27;;;;;;;4.35;3.63;;;15.50;99.90;;;;;;5073698;28;20039;-76
2022/05/17 04:47:53;;;;;;;4.80;2.97;;;16.50;99.90;;;;;;5073711;28;20028;-76
2022/05/17 04:50:20;;;;;;;4.22;3.80;;;16.70;99.90;;;;;;5071806;28;20458;-75
2022/05/17 04:52:47;;;;;;;5.30;3.70;;;16.40;99.90;;;;;;5073090;28;20035;-74
2022/05/17 04:55:19;;;;;;;5.75;3.63;;;16.70;99.90;;;;;;5069583;28;20067;-75
2022/05/17 04:57:45;;;;;;;4.85;4.05;;;16.80;99.90;;;;;;5073736;28;20029;-74
2022/05/17 05:00:19;;;;;;;5.38;3.60;;;16.90;99.90;;;;;;5072311;28;20049;-75
2022/05/17 05:02:46;;;;;;;3.85;3.42;;;17.20;99.90;;;;;;5067507;28;20056;-74
2022/05/17 05:05:13;;;;;;;6.65;3.55;;;17.80;99.90;;;;;;5070925;28;20028;-75
2022/05/17 05:07:39;;;;;;;4.68;3.47;;;19.10;99.10;;;;;;5053178;28;20032;-75
2022/05/17 05:10:06;;;;;;;5.32;3.70;;;20.20;95.70;;;;;;5072164;28;20362;-75
2022/05/17 05:12:33;;;;;;;3.38;2.90;;;21.00;92.50;;;;;;5071500;28;20044;-74
2022/05/17 05:15:00;;;;;;;4.18;3.75;;;21.80;91.00;;;;;;5068987;28;20044;-75
2022/05/17 05:17:30;;;;;;;4.93;3.47;;;22.70;87.40;;;;;;5054822;28;20040;-73
2022/05/17 05:19:57;;;;;;;4.95;3.38;;;22.80;84.40;;;;;;5055698;28;20052;-77
2022/05/17 05:22:24;;;;;;;4.00;3.03;;;23.00;84.50;;;;;;5063027;28;20025;-75
2022/05/17 05:24:50;;;;;;;8.80;3.58;;;23.50;82.80;;;;;;5054705;28;20032;-74
2022/05/17 05:27:16;;;;;;;5.78;3.70;;;24.00;80.70;;;;;;5072584;28;20469;-74
2022/05/17 05:29:42;;;;;;;10.32;3.95;;;24.20;78.40;;;;;;5064981;28;20029;-75
2022/05/17 05:32:09;;;;;;;4.10;3.33;;;24.60;75.90;;;;;;5067585;28;20063;-74
2022/05/17 05:34:35;;;;;;;4.63;4.15;;;24.50;75.60;;;;;;5054990;28;20040;-74
2022/05/17 05:37:03;;;;;;;5.10;4.10;;;24.60;74.90;;;;;;5073565;28;20036;-74
2022/05/17 05:39:30;;;;;;;4.90;4.00;;;24.50;75.90;;;;;;5064007;28;20245;-75
2022/05/17 05:41:57;;;;;;;3.65;3.20;;;25.10;75.50;;;;;;5071614;28;20044;-75
2022/05/17 05:44:24;;;;;;;5.53;3.80;;;25.40;74.10;;;;;;5064163;28;20025;-77
2022/05/17 05:46:50;;;;;;;4.93;4.13;;;25.50;72.40;;;;;;5070162;28;20053;-76
2022/05/17 05:49:16;;;;;;;5.30;3.65;;;26.00;70.90;;;;;;5061978;28;20040;-77
2022/05/17 05:51:43;;;;;;;8.32;4.10;;;26.60;68.20;;;;;;5070649;28;20031;-76
2022/05/17 05:54:09;;;;;;;5.65;4.63;;;25.70;70.10;;;;;;5054100;28;20043;-80
2022/05/17 05:56:38;;;;;;;5.55;4.72;;;25.50;70.20;;;;;;5071619;28;20039;-76
2022/05/17 05:59:05;;;;;;;5.47;4.60;;;25.60;69.90;;;;;;5066435;28;20694;-78
2022/05/17 06:01:32;;;;;;;5.03;4.53;;;25.20;71.20;;;;;;5069238;28;20298;-78
2022/05/17 06:04:01;;;;;;;9.07;4.22;;;25.20;71.60;;;;;;5054152;28;20051;-76
2022/05/17 06:06:27;;;;;;;5.18;4.10;;;25.20;72.10;;;;;;5071655;28;20055;-75
2022/05/17 06:08:53;;;;;;;5.47;4.25;;;25.60;71.80;;;;;;5070134;28;20033;-75
2022/05/17 06:11:19;;;;;;;5.30;4.15;;;25.50;71.10;;;;;;5061036;28;20036;-77
2022/05/17 06:13:46;;;;;;;5.28;3.70;;;26.10;69.20;;;;;;5072935;28;20039;-76
2022/05/17 06:16:12;;;;;;;6.07;4.38;;;25.80;68.40;;;;;;5072430;28;20060;-76
2022/05/17 06:18:39;;;;;;;5.32;4.22;;;25.20;70.00;;;;;;5070581;28;20044;-75
2022/05/17 06:21:05;;;;;;;5.15;3.78;;;24.60;72.50;;;;;;5063585;28;20497;-77
2022/05/17 06:23:33;;;;;;;6.85;5.63;;;23.90;72.90;;;;;;5054175;28;20049;-79
2022/05/17 06:25:59;;;;;;;5.95;5.38;;;22.60;77.60;;;;;;5072698;28;20488;-77
2022/05/17 06:28:28;;;;;;;5.37;4.77;;;22.50;79.20;;;;;;5050963;28;20045;-76
2022/05/17 06:30:54;;;;;;;6.85;5.75;;;23.10;80.30;;;;;;5065948;28;20028;-75
2022/05/17 06:33:21;;;;;;;9.73;6.50;;;22.90;80.10;;;;;;5053147;28;20469;-76
2022/05/17 06:35:48;;;;;;;7.43;6.70;;;22.30;84.70;;;;;;5064069;28;20040;-75
2022/05/17 06:38:17;;;;;;;6.95;6.25;;;22.60;84.60;;;;;;5049971;28;20037;-75
2022/05/17 06:40:43;;;;;;;9.10;6.72;;;22.70;84.20;;;;;;5067312;28;20036;-75
2022/05/17 06:43:10;;;;;;;7.82;6.05;;;22.50;85.30;;;;;;5073055;28;20032;-75
2022/05/17 06:45:37;;;;;;;5.95;5.35;;;22.10;87.40;;;;;;5071840;28;20484;-76
2022/05/17 06:48:04;;;;;;;11.80;6.65;;;21.80;89.60;;;;;;5073382;28;20029;-76
2022/05/17 06:50:32;;;;;;;10.10;5.28;;;22.30;88.80;;;;;;5070452;28;20036;-76
2022/05/17 06:52:58;;;;;;;6.35;5.72;;;23.30;84.90;;;;;;5068981;28;20044;-76
2022/05/17 06:55:25;;;;;;;7.72;5.53;;;24.00;82.90;;;;;;5068554;28;20036;-77
2022/05/17 06:57:52;;;;;;;7.63;5.70;;;23.90;78.80;;;;;;5072646;28;20040;-77
2022/05/17 07:00:19;;;;;;;7.75;6.50;;;23.80;80.10;;;;;;5049594;28;20358;-75
2022/05/17 07:02:46;;;;;;;8.02;7.22;;;23.80;78.90;;;;;;5066202;28;20049;-76
2022/05/17 07:05:13;;;;;;;5.93;5.07;;;23.00;83.30;;;;;;5052516;28;20047;-76
2022/05/17 07:07:39;;;;;;;8.48;7.35;;;22.50;88.10;;;;;;5075772;28;20094;-76
2022/05/17 07:13:07;;;;;;;11.73;6.97;;;24.20;80.50;;;;;;5047503;28;20056;-76
2022/05/17 07:15:46;;;;;;;13.25;7.60;;;24.50;79.50;;;;;;5071664;28;20032;-75
2022/05/17 07:18:17;;;;;;;16.75;9.60;;;24.60;76.00;;;;;;5034748;28;20482;-79
2022/05/17 07:20:43;;;;;;;10.20;8.27;;;24.40;75.40;;;;;;5067700;28;20048;-75
2022/05/17 07:23:10;;;;;;;8.50;7.47;;;23.00;81.80;;;;;;5072456;28;20032;-76
2022/05/17 07:25:41;;;;;;;9.27;7.43;;;22.40;86.80;;;;;;5066260;28;20473;-75
2022/05/17 07:28:12;;;;;;;8.93;8.10;;;22.90;84.40;;;;;;5065896;28;20458;-75
2022/05/17 07:30:39;;;;;;;6.85;6.18;;;23.70;83.30;;;;;;5072776;28;20028;-77
2022/05/17 07:33:05;;;;;;;7.88;7.07;;;24.50;80.10;;;;;;5071688;28;20041;-76
2022/05/17 07:35:32;;;;;;;13.45;7.50;;;25.50;74.90;;;;;;5075932;28;20035;-76
2022/05/17 07:37:58;;;;;;;12.02;8.57;;;26.20;72.30;;;;;;5068971;28;20032;-78
2022/05/17 07:40:24;;;;;;;10.57;7.88;;;26.80;66.60;;;;;;5073715;28;20029;-75
2022/05/17 07:42:52;;;;;;;13.73;8.15;;;25.90;68.40;;;;;;5075231;28;20036;-74
2022/05/17 07:45:19;;;;;;;9.55;7.45;;;25.40;70.40;;;;;;5081232;28;20408;-77
2022/05/17 07:47:46;;;;;;;8.23;7.45;;;25.40;69.70;;;;;;5073540;28;20033;-77
2022/05/17 07:50:12;;;;;;;8.30;6.03;;;25.40;69.90;;;;;;5074497;28;20040;-77
2022/05/17 07:52:38;;;;;;;8.82;7.15;;;25.30;69.50;;;;;;5057269;28;20099;-76
2022/05/17 07:55:14;;;;;;;7.00;6.20;;;25.30;69.40;;;;;;5075466;28;20028;-76
2022/05/17 07:57:40;;;;;;;10.80;5.97;;;25.70;70.30;;;;;;5071035;28;20037;-77
2022/05/17 08:00:07;;;;;;;7.70;6.85;;;26.30;68.20;;;;;;5079730;28;20030;-77
2022/05/17 08:02:38;;;;;;;6.88;5.60;;;25.60;68.10;;;;;;5082869;28;20032;-76
2022/05/17 08:05:05;;;;;;;9.73;6.38;;;25.30;72.70;;;;;;5050134;28;20041;-76
2022/05/17 08:07:31;;;;;;;7.95;5.82;;;25.60;70.80;;;;;;5077154;28;20290;-75
2022/05/17 08:09:57;;;;;;;10.77;6.05;;;25.80;68.20;;;;;;5068989;28;20029;-77
2022/05/17 08:12:24;;;;;;;9.18;4.57;;;26.50;67.10;;;;;;5071211;28;20032;-76
2022/05/17 08:14:50;;;;;;;6.57;5.32;;;27.60;64.80;;;;;;5075823;28;20033;-75
2022/05/17 08:17:16;;;;;;;5.50;4.63;;;27.00;63.60;;;;;;5074173;28;20142;-76
2022/05/17 08:19:42;;;;;;;6.78;4.80;;;26.00;66.70;;;;;;5077094;28;20032;-77
2022/05/17 08:22:12;;;;;;;4.45;3.55;;;26.50;66.10;;;;;;5089413;28;20025;-76
2022/05/17 08:27:32;;;;;;;4.45;3.92;;;27.60;61.20;;;;;;5097475;28;20039;-75
2022/05/17 08:30:00;;;;;;;5.60;3.92;;;26.60;65.20;;;;;;5090076;28;20044;-75
2022/05/17 08:35:11;;;;;;;4.88;4.03;;;26.70;60.70;;;;;;5085046;28;20036;-75
2022/05/17 08:37:37;;;;;;;6.07;5.18;;;25.00;64.00;;;;;;5095974;28;20031;-75
2022/05/17 08:40:04;;;;;;;5.03;4.25;;;25.10;66.00;;;;;;5093350;28;20040;-75
2022/05/17 08:42:46;;;;;;;5.00;4.00;;;25.20;64.80;;;;;;5094323;28;20380;-75
2022/05/17 08:45:17;;;;;;;4.38;3.58;;;25.50;63.30;;;;;;5094674;28;20040;-77
2022/05/17 08:47:52;;;;;;;5.05;3.65;;;25.50;63.40;;;;;;5090454;28;20035;-74
2022/05/17 08:50:23;;;;;;;8.18;4.80;;;24.90;63.50;;;;;;5086537;28;20048;-75
2022/05/17 08:52:49;;;;;;;4.68;3.88;;;24.20;65.50;;;;;;5091923;28;20032;-75
2022/05/17 08:55:26;;;;;;;7.13;4.50;;;24.70;64.70;;;;;;5093052;28;20043;-77
2022/05/17 08:58:05;;;;;;;6.13;5.10;;;25.00;63.80;;;;;;5089358;28;20028;-75
2022/05/17 09:00:40;;;;;;;11.52;4.47;;;23.90;65.20;;;;;;5090247;28;20044;-75
2022/05/17 09:03:36;;;;;;;4.57;3.88;;;24.00;66.40;;;;;;5090001;28;20098;-73
2022/05/17 09:06:13;;;;;;;5.05;3.92;;;23.90;65.60;;;;;;5087499;28;20412;-75
2022/05/17 09:08:45;;;;;;;6.28;3.97;;;23.90;65.70;;;;;;5089534;28;20028;-74
2022/05/17 09:11:46;;;;;;;5.15;2.78;;;23.90;66.00;;;;;;5085908;28;20040;-74
2022/05/17 09:14:17;;;;;;;5.30;3.13;;;25.40;65.30;;;;;;5076898;28;20051;-75
2022/05/17 09:16:47;;;;;;;4.75;3.53;;;26.40;60.30;;;;;;5090577;28;20035;-73
2022/05/17 09:19:15;;;;;;;8.50;3.83;;;26.60;58.90;;;;;;5081026;28;20041;-77
2022/05/17 09:21:44;;;;;;;7.20;3.00;;;26.30;57.80;;;;;;5071621;28;20024;-75
2022/05/17 09:24:15;;;;;;;3.83;3.17;;;25.80;58.90;;;;;;5072886;28;20055;-74
2022/05/17 09:26:52;;;;;;;4.22;3.65;;;25.90;58.90;;;;;;5054471;28;20032;-74
2022/05/17 09:29:25;;;;;;;6.53;3.83;;;25.90;59.10;;;;;;5051743;28;20426;-74
2022/05/17 09:31:59;;;;;;;8.65;4.57;;;25.80;60.10;;;;;;5070932;28;20028;-74
2022/05/17 09:34:39;;;;;;;6.78;4.68;;;25.90;59.50;;;;;;5075005;28;20043;-74
2022/05/17 09:37:20;;;;;;;4.53;3.50;;;26.60;58.20;;;;;;5073893;28;20028;-75
2022/05/17 09:39:49;;;;;;;3.67;3.08;;;27.20;58.00;;;;;;5073055;28;20024;-75
2022/05/17 09:42:36;;;;;;;6.03;4.53;;;28.00;57.10;;;;;;5062106;28;20037;-75
2022/05/17 09:45:14;;;;;;;4.80;3.72;;;28.30;54.50;;;;;;5065876;28;20476;-74
2022/05/17 09:47:55;;;;;;;7.00;4.05;;;26.80;55.80;;;;;;5073142;28;20028;-74
2022/05/17 09:53:17;;;;;;;5.45;4.88;;;26.10;56.60;;;;;;5065286;28;20031;-75
2022/05/17 09:55:56;;;;;;;6.10;3.30;;;25.80;57.20;;;;;;5068865;28;20036;-74
2022/05/17 09:58:42;;;;;;;6.30;5.68;;;25.60;57.60;;;;;;5069157;28;20052;-75
2022/05/17 10:01:38;;;;;;;6.65;5.20;;;25.70;56.60;;;;;;5066378;28;20037;-74
2022/05/17 10:04:10;;;;;;;3.65;3.35;;;25.70;57.00;;;;;;5045436;28;20063;-74
2022/05/17 10:06:44;;;;;;;8.32;5.45;;;25.40;56.00;;;;;;5040795;28;20100;-76
2022/05/17 10:09:27;;;;;;;5.93;4.32;;;25.70;56.00;;;;;;5054974;28;20446;-76
2022/05/17 10:12:00;;;;;;;5.45;4.18;;;25.90;56.80;;;;;;5068144;28;20039;-77
2022/05/17 10:14:36;;;;;;;4.07;3.65;;;25.70;57.60;;;;;;5072996;28;20373;-77
2022/05/17 10:17:14;;;;;;;11.10;4.00;;;25.40;56.80;;;;;;5067582;28;20044;-76
2022/05/17 10:19:59;;;;;;;4.90;4.50;;;25.90;58.00;;;;;;5071507;28;20052;-76
2022/05/17 10:23:10;;;;;;;5.60;3.75;;;26.00;55.50;;;;;;5070915;28;20055;-76
2022/05/17 10:26:01;;;;;;;5.60;4.93;;;26.00;55.90;;;;;;5038371;28;20044;-75
2022/05/17 10:28:36;;;;;;;5.63;4.40;;;25.30;56.30;;;;;;5036391;28;20033;-76
2022/05/17 10:31:21;;;;;;;4.40;3.78;;;24.80;56.50;;;;;;5072699;28;20051;-78
2022/05/17 10:34:11;;;;;;;6.60;4.57;;;24.70;57.00;;;;;;5054186;28;20469;-76
2022/05/17 10:36:49;;;;;;;4.88;4.00;;;24.60;57.20;;;;;;5052544;28;20032;-77
2022/05/17 10:39:28;;;;;;;6.47;4.60;;;24.30;57.60;;;;;;5052950;28;20041;-78
2022/05/17 10:41:55;;;;;;;7.93;4.53;;;24.90;57.00;;;;;;5034354;28;20037;-76
2022/05/17 10:44:22;;;;;;;5.93;4.15;;;24.80;58.00;;;;;;5068888;28;20633;-76
2022/05/17 10:47:01;;;;;;;6.80;3.33;;;24.80;57.30;;;;;;5069191;28;20035;-76
2022/05/17 10:49:42;;;;;;;4.63;3.65;;;25.30;57.10;;;;;;5066283;28;20041;-79
2022/05/17 10:52:45;;;;;;;9.48;4.25;;;25.50;55.30;;;;;;5029675;28;20474;-77
2022/05/17 10:55:17;;;;;;;4.78;3.53;;;24.90;55.10;;;;;;5049891;28;20063;-76
2022/05/17 10:57:55;;;;;;;11.10;4.68;;;25.20;56.60;;;;;;5065850;28;20469;-76
2022/05/17 11:00:34;;;;;;;5.00;4.18;;;25.90;55.60;;;;;;5060485;28;20025;-76
2022/05/17 11:03:16;;;;;;;5.25;3.17;;;25.70;55.00;;;;;;5069915;28;20033;-76
2022/05/17 11:06:11;;;;;;;5.90;4.45;;;25.60;56.30;;;;;;5067151;28;20482;-78
2022/05/17 11:08:54;;;;;;;5.20;4.43;;;25.50;55.60;;;;;;5067189;28;20043;-76
2022/05/17 11:11:26;;;;;;;6.03;4.40;;;25.50;55.30;;;;;;5074797;28;20029;-76
2022/05/17 11:13:56;;;;;;;3.95;3.55;;;25.40;55.50;;;;;;5096571;28;20036;-77
2022/05/17 11:16:32;;;;;;;7.63;3.40;;;25.50;56.20;;;;;;5077074;28;20037;-76
2022/05/17 11:19:22;;;;;;;4.63;3.75;;;25.90;56.60;;;;;;5058728;28;20049;-78
2022/05/17 11:22:07;;;;;;;3.72;3.28;;;26.70;55.70;;;;;;5094995;28;20055;-76
2022/05/17 11:25:11;;;;;;;7.10;2.92;;;26.90;55.10;;;;;;5095321;28;20043;-77
2022/05/17 11:27:54;;;;;;;3.45;3.03;;;26.50;54.60;;;;;;5094326;28;20384;-76
2022/05/17 11:30:23;;;;;;;2.53;2.30;;;26.60;54.00;;;;;;5090479;28;20486;-77
2022/05/17 11:33:10;;;;;;;3.65;3.35;;;26.60;55.80;;;;;;5093398;28;20457;-77
2022/05/17 11:35:46;;;;;;;4.13;2.90;;;27.00;54.20;;;;;;5087604;28;20036;-77
2022/05/17 11:38:19;;;;;;;4.13;2.55;;;26.60;55.80;;;;;;5096091;28;20059;-77
2022/05/17 11:40:54;;;;;;;4.05;2.50;;;26.60;54.60;;;;;;5097422;28;20452;-78
2022/05/17 11:43:40;;;;;;;6.72;2.35;;;27.00;54.80;;;;;;5094844;28;20039;-76
2022/05/17 11:46:28;;;;;;;4.63;2.90;;;27.40;53.60;;;;;;5075838;28;20504;-77
2022/05/17 11:49:12;;;;;;;3.50;3.10;;;27.30;54.00;;;;;;5094372;28;20031;-78
2022/05/17 11:52:00;;;;;;;7.45;3.20;;;27.30;53.60;;;;;;5101308;28;20456;-77
2022/05/17 11:54:45;;;;;;;;;;;26.80;53.50;;;;;;5020103;28;20049;-76
2022/05/17 11:57:17;;;;;;;2.03;1.67;;;26.40;53.80;;;;;;5040013;28;19915;-77
2022/05/17 11:59:54;;;;;;;2.83;1.73;;;25.70;52.20;;;;;;5054873;28;20044;-78
2022/05/17 12:02:46;;;;;;;2.72;1.83;;;25.10;53.30;;;;;;5034159;28;20045;-77
2022/05/17 12:05:33;;;;;;;4.05;1.98;;;24.80;54.10;;;;;;5050445;28;20037;-76
2022/05/17 12:08:27;;;;;;;3.95;1.77;;;25.10;54.00;;;;;;5025319;28;20049;-75
2022/05/17 12:11:25;;;;;;;6.05;2.10;;;25.50;54.60;;;;;;5052216;28;20466;-74
2022/05/17 12:14:01;;;;;;;2.40;2.00;;;25.40;53.40;;;;;;5051750;28;20444;-76
2022/05/17 12:16:30;;;;;;;2.50;1.98;;;25.30;53.20;;;;;;5050770;28;20044;-76
2022/05/17 12:18:59;;;;;;;3.33;1.48;;;25.20;53.50;;;;;;5051770;28;20041;-76
2022/05/17 12:21:44;;;;;;;3.05;1.92;;;25.30;53.80;;;;;;5034106;28;20045;-76
2022/05/17 12:24:10;;;;;;;4.25;1.75;;;25.80;54.00;;;;;;5036514;28;20048;-76
2022/05/17 12:26:55;;;;;;;1.75;1.48;;;26.30;52.50;;;;;;5086619;28;20051;-77
2022/05/17 12:32:12;;;;;;;;;;;25.60;52.90;;;;;;5093947;28;20461;-76
2022/05/17 12:34:41;;;;;;;0.90;0.60;;;25.70;53.60;;;;;;5089848;28;19916;-76
2022/05/17 12:37:11;;;;;;;0.75;0.50;;;26.20;47.40;;;;;;5093636;28;20055;-78
2022/05/17 12:45:20;;;;;;;0.95;0.50;;;25.80;47.10;;;;;;5090123;28;20036;-78
2022/05/17 12:47:52;;;;;;;0.95;0.70;;;25.40;47.30;;;;;;5089262;28;20420;-76
2022/05/17 12:50:40;;;;;;;0.55;0.55;;;25.80;47.50;;;;;;5092923;28;20040;-76
2022/05/17 12:53:44;;;;;;;1.08;0.60;;;25.50;47.50;;;;;;5076331;28;20489;-76
2022/05/17 12:56:33;;;;;;;0.98;0.68;;;25.50;48.10;;;;;;5062310;28;20048;-78
2022/05/17 12:59:03;;;;;;;1.77;1.33;;;25.80;48.70;;;;;;5096048;28;20039;-77
2022/05/17 13:01:35;;;;;;;4.57;1.00;;;25.70;48.70;;;;;;5096249;28;20397;-77
2022/05/17 13:04:15;;;;;;;2.10;1.45;;;25.30;50.00;;;;;;5081440;28;20040;-77
2022/05/17 13:06:49;;;;;;;2.88;2.03;;;25.50;50.60;;;;;;5088738;28;20040;-79
2022/05/17 13:09:23;;;;;;;2.63;1.83;;;25.40;50.70;;;;;;5095275;28;20043;-79
2022/05/17 13:11:52;;;;;;;1.65;1.30;;;25.70;51.50;;;;;;5093131;28;20040;-79
2022/05/17 13:14:21;;;;;;;1.85;1.58;;;26.50;49.50;;;;;;5090345;28;20051;-77
2022/05/17 13:16:48;;;;;;;2.17;1.48;;;26.10;49.30;;;;;;5093089;28;20039;-76
2022/05/17 13:19:17;;;;;;;2.45;1.52;;;25.90;49.80;;;;;;5086626;28;20466;-77
2022/05/17 13:21:51;;;;;;;2.17;0.90;;;26.10;50.00;;;;;;5052354;28;20075;-77
2022/05/17 13:24:34;;;;;;;1.48;1.08;;;26.40;49.10;;;;;;5046815;28;20052;-79
2022/05/17 13:27:15;;;;;;;0.95;0.93;;;26.40;48.90;;;;;;5074035;28;20028;-79
2022/05/17 13:29:51;;;;;;;2.20;1.33;;;26.20;49.50;;;;;;5052279;28;20040;-77